sensor_id;sensor_type;location;lat;lon;timestamp;P1;durP1;ratioP1;P2;durP2;ratioP2
29712;SDS011;16623;53.632;10.016;2024-03-07T00:01:00;35.72;;;16.77;;
29712;SDS011;16623;53.632;10.016;2024-03-07T00:03:27;36.33;;;16.20;;
29712;SDS011;16623;53.632;10.016;2024-03-07T00:05:53;32.60;;;15.43;;
29712;SDS011;16623;53.632;10.016;2024-03-07T00:08:18;35.10;;;17.10;;
29712;SDS011;16623;53.632;10.016;2024-03-07T00:10:44;39.25;;;18.23;;
29712;SDS011;16623;53.632;10.016;2024-03-07T00:13:10;30.08;;;16.80;;
29712;SDS011;16623;53.632;10.016;2024-03-07T00:15:36;33.55;;;16.38;;
29712;SDS011;16623;53.632;10.016;2024-03-07T00:18:01;36.33;;;17.38;;
29712;SDS011;16623;53.632;10.016;2024-03-07T00:20:27;24.65;;;13.13;;
29712;SDS011;16623;53.632;10.016;2024-03-07T00:22:53;41.65;;;17.63;;
29712;SDS011;16623;53.632;10.016;2024-03-07T00:25:18;30.80;;;13.38;;
29712;SDS011;16623;53.632;10.016;2024-03-07T00:27:44;28.35;;;14.02;;
29712;SDS011;16623;53.632;10.016;2024-03-07T00:30:10;32.08;;;14.10;;
29712;SDS011;16623;53.632;10.016;2024-03-07T00:32:39;29.50;;;15.38;;
29712;SDS011;16623;53.632;10.016;2024-03-07T00:35:06;31.85;;;16.45;;
29712;SDS011;16623;53.632;10.016;2024-03-07T00:37:33;37.63;;;15.45;;
29712;SDS011;16623;53.632;10.016;2024-03-07T00:39:59;40.50;;;16.00;;
29712;SDS011;16623;53.632;10.016;2024-03-07T00:42:24;42.42;;;16.60;;
29712;SDS011;16623;53.632;10.016;2024-03-07T00:44:50;39.05;;;16.95;;
29712;SDS011;16623;53.632;10.016;2024-03-07T00:47:16;41.60;;;17.83;;
29712;SDS011;16623;53.632;10.016;2024-03-07T00:49:44;37.75;;;17.17;;
29712;SDS011;16623;53.632;10.016;2024-03-07T00:52:13;36.30;;;13.88;;
29712;SDS011;16623;53.632;10.016;2024-03-07T00:54:39;32.58;;;15.80;;
29712;SDS011;16623;53.632;10.016;2024-03-07T00:57:05;28.33;;;11.05;;
29712;SDS011;16623;53.632;10.016;2024-03-07T00:59:30;39.42;;;18.42;;
29712;SDS011;16623;53.632;10.016;2024-03-07T01:01:56;39.22;;;17.27;;
29712;SDS011;16623;53.632;10.016;2024-03-07T01:04:21;38.67;;;16.98;;
29712;SDS011;16623;53.632;10.016;2024-03-07T01:06:47;45.13;;;18.98;;
29712;SDS011;16623;53.632;10.016;2024-03-07T01:09:13;38.42;;;13.73;;
29712;SDS011;16623;53.632;10.016;2024-03-07T01:11:42;34.53;;;16.58;;
29712;SDS011;16623;53.632;10.016;2024-03-07T01:14:09;24.58;;;13.05;;
29712;SDS011;16623;53.632;10.016;2024-03-07T01:16:35;45.78;;;20.08;;
29712;SDS011;16623;53.632;10.016;2024-03-07T01:19:01;35.33;;;16.27;;
29712;SDS011;16623;53.632;10.016;2024-03-07T01:21:27;48.47;;;19.88;;
29712;SDS011;16623;53.632;10.016;2024-03-07T01:23:52;39.42;;;18.92;;
29712;SDS011;16623;53.632;10.016;2024-03-07T01:26:18;37.55;;;17.05;;
29712;SDS011;16623;53.632;10.016;2024-03-07T01:28:44;31.25;;;13.45;;
29712;SDS011;16623;53.632;10.016;2024-03-07T01:31:09;46.17;;;20.50;;
29712;SDS011;16623;53.632;10.016;2024-03-07T01:33:35;43.70;;;18.95;;
29712;SDS011;16623;53.632;10.016;2024-03-07T01:36:01;37.28;;;16.77;;
29712;SDS011;16623;53.632;10.016;2024-03-07T01:38:26;46.05;;;20.88;;
29712;SDS011;16623;53.632;10.016;2024-03-07T01:40:52;42.13;;;22.30;;
29712;SDS011;16623;53.632;10.016;2024-03-07T01:43:19;60.17;;;19.77;;
29712;SDS011;16623;53.632;10.016;2024-03-07T01:45:46;44.38;;;21.17;;
29712;SDS011;16623;53.632;10.016;2024-03-07T01:48:12;50.40;;;21.35;;
29712;SDS011;16623;53.632;10.016;2024-03-07T01:50:46;51.08;;;21.50;;
29712;SDS011;16623;53.632;10.016;2024-03-07T01:53:12;49.25;;;21.50;;
29712;SDS011;16623;53.632;10.016;2024-03-07T01:55:39;45.60;;;20.23;;
29712;SDS011;16623;53.632;10.016;2024-03-07T01:58:04;43.95;;;20.45;;
29712;SDS011;16623;53.632;10.016;2024-03-07T02:00:33;41.78;;;18.95;;
29712;SDS011;16623;53.632;10.016;2024-03-07T02:02:59;52.75;;;22.08;;
29712;SDS011;16623;53.632;10.016;2024-03-07T02:05:24;37.92;;;17.38;;
29712;SDS011;16623;53.632;10.016;2024-03-07T02:07:50;25.85;;;12.43;;
29712;SDS011;16623;53.632;10.016;2024-03-07T02:10:16;41.22;;;19.30;;
29712;SDS011;16623;53.632;10.016;2024-03-07T02:12:42;41.50;;;18.38;;
29712;SDS011;16623;53.632;10.016;2024-03-07T02:15:08;24.80;;;13.10;;
29712;SDS011;16623;53.632;10.016;2024-03-07T02:17:34;50.67;;;19.88;;
29712;SDS011;16623;53.632;10.016;2024-03-07T02:20:01;45.70;;;20.30;;
29712;SDS011;16623;53.632;10.016;2024-03-07T02:22:29;32.78;;;19.17;;
29712;SDS011;16623;53.632;10.016;2024-03-07T02:24:54;24.65;;;13.45;;
29712;SDS011;16623;53.632;10.016;2024-03-07T02:27:20;35.88;;;16.55;;
29712;SDS011;16623;53.632;10.016;2024-03-07T02:29:45;39.63;;;16.75;;
29712;SDS011;16623;53.632;10.016;2024-03-07T02:32:11;37.45;;;15.95;;
29712;SDS011;16623;53.632;10.016;2024-03-07T02:34:38;33.00;;;15.18;;
29712;SDS011;16623;53.632;10.016;2024-03-07T02:37:03;30.63;;;14.95;;
29712;SDS011;16623;53.632;10.016;2024-03-07T02:39:29;33.33;;;16.00;;
29712;SDS011;16623;53.632;10.016;2024-03-07T02:41:55;38.83;;;13.82;;
29712;SDS011;16623;53.632;10.016;2024-03-07T02:44:21;32.38;;;14.02;;
29712;SDS011;16623;53.632;10.016;2024-03-07T02:46:46;29.05;;;13.32;;
29712;SDS011;16623;53.632;10.016;2024-03-07T02:49:12;30.00;;;14.68;;
29712;SDS011;16623;53.632;10.016;2024-03-07T02:51:41;33.05;;;14.05;;
29712;SDS011;16623;53.632;10.016;2024-03-07T02:54:07;28.92;;;14.60;;
29712;SDS011;16623;53.632;10.016;2024-03-07T02:56:32;27.35;;;12.65;;
29712;SDS011;16623;53.632;10.016;2024-03-07T02:58:58;29.27;;;14.25;;
29712;SDS011;16623;53.632;10.016;2024-03-07T03:01:23;23.00;;;11.02;;
29712;SDS011;16623;53.632;10.016;2024-03-07T03:03:49;30.67;;;14.68;;
29712;SDS011;16623;53.632;10.016;2024-03-07T03:06:15;26.77;;;11.63;;
29712;SDS011;16623;53.632;10.016;2024-03-07T03:08:40;22.77;;;11.30;;
29712;SDS011;16623;53.632;10.016;2024-03-07T03:11:06;20.25;;;10.23;;
29712;SDS011;16623;53.632;10.016;2024-03-07T03:13:34;29.75;;;13.30;;
29712;SDS011;16623;53.632;10.016;2024-03-07T03:16:03;24.52;;;12.25;;
29712;SDS011;16623;53.632;10.016;2024-03-07T03:18:29;28.10;;;14.18;;
29712;SDS011;16623;53.632;10.016;2024-03-07T03:20:56;24.42;;;11.95;;
29712;SDS011;16623;53.632;10.016;2024-03-07T03:23:22;28.30;;;13.10;;
29712;SDS011;16623;53.632;10.016;2024-03-07T03:25:47;30.35;;;11.82;;
29712;SDS011;16623;53.632;10.016;2024-03-07T03:28:13;28.83;;;12.52;;
29712;SDS011;16623;53.632;10.016;2024-03-07T03:30:38;25.45;;;12.88;;
29712;SDS011;16623;53.632;10.016;2024-03-07T03:33:05;26.38;;;12.18;;
29712;SDS011;16623;53.632;10.016;2024-03-07T03:35:31;33.00;;;13.40;;
29712;SDS011;16623;53.632;10.016;2024-03-07T03:38:00;30.40;;;13.48;;
29712;SDS011;16623;53.632;10.016;2024-03-07T03:40:26;20.75;;;10.07;;
29712;SDS011;16623;53.632;10.016;2024-03-07T03:42:51;25.67;;;11.30;;
29712;SDS011;16623;53.632;10.016;2024-03-07T03:45:17;28.58;;;13.38;;
29712;SDS011;16623;53.632;10.016;2024-03-07T03:47:43;24.40;;;11.45;;
29712;SDS011;16623;53.632;10.016;2024-03-07T03:50:10;30.33;;;14.38;;
29712;SDS011;16623;53.632;10.016;2024-03-07T03:52:36;28.77;;;13.10;;
29712;SDS011;16623;53.632;10.016;2024-03-07T03:55:03;19.30;;;9.63;;
29712;SDS011;16623;53.632;10.016;2024-03-07T03:57:34;31.17;;;13.10;;
29712;SDS011;16623;53.632;10.016;2024-03-07T04:00:00;27.10;;;11.93;;
29712;SDS011;16623;53.632;10.016;2024-03-07T04:02:25;26.27;;;13.48;;
29712;SDS011;16623;53.632;10.016;2024-03-07T04:04:52;21.52;;;10.65;;
29712;SDS011;16623;53.632;10.016;2024-03-07T04:07:18;31.33;;;14.95;;
29712;SDS011;16623;53.632;10.016;2024-03-07T04:09:44;39.78;;;14.82;;
29712;SDS011;16623;53.632;10.016;2024-03-07T04:12:10;29.83;;;15.07;;
29712;SDS011;16623;53.632;10.016;2024-03-07T04:14:40;27.65;;;12.10;;
29712;SDS011;16623;53.632;10.016;2024-03-07T04:17:09;15.23;;;8.68;;
29712;SDS011;16623;53.632;10.016;2024-03-07T04:19:41;27.20;;;12.98;;
29712;SDS011;16623;53.632;10.016;2024-03-07T04:22:07;25.80;;;13.02;;
29712;SDS011;16623;53.632;10.016;2024-03-07T04:24:34;21.27;;;12.18;;
29712;SDS011;16623;53.632;10.016;2024-03-07T04:27:00;33.63;;;16.35;;
29712;SDS011;16623;53.632;10.016;2024-03-07T04:29:32;18.73;;;9.27;;
29712;SDS011;16623;53.632;10.016;2024-03-07T04:31:59;29.60;;;16.15;;
29712;SDS011;16623;53.632;10.016;2024-03-07T04:34:26;26.17;;;12.27;;
29712;SDS011;16623;53.632;10.016;2024-03-07T04:36:52;31.65;;;16.75;;
29712;SDS011;16623;53.632;10.016;2024-03-07T04:39:18;19.98;;;10.35;;
29712;SDS011;16623;53.632;10.016;2024-03-07T04:41:53;31.45;;;14.95;;
29712;SDS011;16623;53.632;10.016;2024-03-07T04:44:19;30.55;;;15.20;;
29712;SDS011;16623;53.632;10.016;2024-03-07T04:46:50;28.48;;;15.10;;
29712;SDS011;16623;53.632;10.016;2024-03-07T04:49:20;29.95;;;15.23;;
29712;SDS011;16623;53.632;10.016;2024-03-07T04:51:52;42.10;;;15.63;;
29712;SDS011;16623;53.632;10.016;2024-03-07T04:54:19;22.33;;;11.38;;
29712;SDS011;16623;53.632;10.016;2024-03-07T04:56:45;25.75;;;14.70;;
29712;SDS011;16623;53.632;10.016;2024-03-07T04:59:12;25.20;;;13.73;;
29712;SDS011;16623;53.632;10.016;2024-03-07T05:01:38;28.30;;;13.68;;
29712;SDS011;16623;53.632;10.016;2024-03-07T05:04:04;19.20;;;12.02;;
29712;SDS011;16623;53.632;10.016;2024-03-07T05:06:34;22.75;;;12.63;;
29712;SDS011;16623;53.632;10.016;2024-03-07T05:09:00;27.80;;;14.05;;
29712;SDS011;16623;53.632;10.016;2024-03-07T05:11:27;30.23;;;14.45;;
29712;SDS011;16623;53.632;10.016;2024-03-07T05:13:53;25.58;;;13.98;;
29712;SDS011;16623;53.632;10.016;2024-03-07T05:16:19;17.00;;;9.20;;
29712;SDS011;16623;53.632;10.016;2024-03-07T05:18:45;27.42;;;12.25;;
29712;SDS011;16623;53.632;10.016;2024-03-07T05:21:10;17.20;;;11.07;;
29712;SDS011;16623;53.632;10.016;2024-03-07T05:24:11;23.67;;;13.05;;
29712;SDS011;16623;53.632;10.016;2024-03-07T05:26:37;26.23;;;11.55;;
29712;SDS011;16623;53.632;10.016;2024-03-07T05:29:05;24.67;;;13.05;;
29712;SDS011;16623;53.632;10.016;2024-03-07T05:31:36;22.60;;;11.20;;
29712;SDS011;16623;53.632;10.016;2024-03-07T05:34:03;30.80;;;14.63;;
29712;SDS011;16623;53.632;10.016;2024-03-07T05:36:33;27.73;;;14.18;;
29712;SDS011;16623;53.632;10.016;2024-03-07T05:39:09;25.75;;;14.10;;
29712;SDS011;16623;53.632;10.016;2024-03-07T05:41:38;16.48;;;9.35;;
29712;SDS011;16623;53.632;10.016;2024-03-07T05:44:04;23.40;;;10.90;;
29712;SDS011;16623;53.632;10.016;2024-03-07T05:46:40;22.77;;;12.50;;
29712;SDS011;16623;53.632;10.016;2024-03-07T05:49:11;14.90;;;9.85;;
29712;SDS011;16623;53.632;10.016;2024-03-07T05:51:37;22.10;;;12.18;;
29712;SDS011;16623;53.632;10.016;2024-03-07T05:54:02;24.80;;;12.73;;
29712;SDS011;16623;53.632;10.016;2024-03-07T05:56:32;21.50;;;12.98;;
29712;SDS011;16623;53.632;10.016;2024-03-07T05:59:01;16.42;;;9.45;;
29712;SDS011;16623;53.632;10.016;2024-03-07T06:01:29;22.35;;;13.00;;
29712;SDS011;16623;53.632;10.016;2024-03-07T06:04:02;22.05;;;12.00;;
29712;SDS011;16623;53.632;10.016;2024-03-07T06:06:30;20.88;;;12.55;;
29712;SDS011;16623;53.632;10.016;2024-03-07T06:08:58;20.42;;;12.32;;
29712;SDS011;16623;53.632;10.016;2024-03-07T06:11:25;26.35;;;13.68;;
29712;SDS011;16623;53.632;10.016;2024-03-07T06:13:50;15.85;;;8.68;;
29712;SDS011;16623;53.632;10.016;2024-03-07T06:16:16;18.20;;;10.43;;
29712;SDS011;16623;53.632;10.016;2024-03-07T06:18:43;20.30;;;11.40;;
29712;SDS011;16623;53.632;10.016;2024-03-07T06:21:11;18.00;;;10.95;;
29712;SDS011;16623;53.632;10.016;2024-03-07T06:23:38;13.30;;;8.77;;
29712;SDS011;16623;53.632;10.016;2024-03-07T06:26:04;21.45;;;12.25;;
29712;SDS011;16623;53.632;10.016;2024-03-07T06:28:37;17.60;;;11.13;;
29712;SDS011;16623;53.632;10.016;2024-03-07T06:31:03;22.08;;;11.70;;
29712;SDS011;16623;53.632;10.016;2024-03-07T06:33:32;23.50;;;12.52;;
29712;SDS011;16623;53.632;10.016;2024-03-07T06:35:58;22.65;;;11.85;;
29712;SDS011;16623;53.632;10.016;2024-03-07T06:38:25;19.50;;;12.05;;
29712;SDS011;16623;53.632;10.016;2024-03-07T06:40:52;19.17;;;9.60;;
29712;SDS011;16623;53.632;10.016;2024-03-07T06:43:17;20.88;;;12.13;;
29712;SDS011;16623;53.632;10.016;2024-03-07T06:45:43;22.17;;;12.57;;
29712;SDS011;16623;53.632;10.016;2024-03-07T06:48:11;18.80;;;10.55;;
29712;SDS011;16623;53.632;10.016;2024-03-07T06:50:39;18.55;;;11.45;;
29712;SDS011;16623;53.632;10.016;2024-03-07T06:53:05;27.25;;;13.27;;
29712;SDS011;16623;53.632;10.016;2024-03-07T06:55:34;16.55;;;10.52;;
29712;SDS011;16623;53.632;10.016;2024-03-07T06:58:00;21.95;;;11.15;;
29712;SDS011;16623;53.632;10.016;2024-03-07T07:00:26;28.45;;;12.57;;
29712;SDS011;16623;53.632;10.016;2024-03-07T07:02:52;19.27;;;12.25;;
29712;SDS011;16623;53.632;10.016;2024-03-07T07:05:19;18.10;;;10.18;;
29712;SDS011;16623;53.632;10.016;2024-03-07T07:07:49;19.02;;;12.13;;
29712;SDS011;16623;53.632;10.016;2024-03-07T07:10:16;26.27;;;12.75;;
29712;SDS011;16623;53.632;10.016;2024-03-07T07:12:44;19.65;;;10.30;;
29712;SDS011;16623;53.632;10.016;2024-03-07T07:15:11;24.55;;;10.75;;
29712;SDS011;16623;53.632;10.016;2024-03-07T07:17:37;20.67;;;10.50;;
29712;SDS011;16623;53.632;10.016;2024-03-07T07:20:03;22.10;;;10.77;;
29712;SDS011;16623;53.632;10.016;2024-03-07T07:22:35;25.17;;;11.43;;
29712;SDS011;16623;53.632;10.016;2024-03-07T07:25:04;22.23;;;10.73;;
29712;SDS011;16623;53.632;10.016;2024-03-07T07:27:34;24.42;;;11.20;;
29712;SDS011;16623;53.632;10.016;2024-03-07T07:29:59;22.23;;;12.23;;
29712;SDS011;16623;53.632;10.016;2024-03-07T07:32:25;15.98;;;8.45;;
29712;SDS011;16623;53.632;10.016;2024-03-07T07:34:53;18.42;;;9.68;;
29712;SDS011;16623;53.632;10.016;2024-03-07T07:37:19;16.60;;;9.88;;
29712;SDS011;16623;53.632;10.016;2024-03-07T07:39:44;23.30;;;11.68;;
29712;SDS011;16623;53.632;10.016;2024-03-07T07:42:11;21.70;;;10.18;;
29712;SDS011;16623;53.632;10.016;2024-03-07T07:44:36;16.70;;;9.18;;
29712;SDS011;16623;53.632;10.016;2024-03-07T07:47:02;20.70;;;10.27;;
29712;SDS011;16623;53.632;10.016;2024-03-07T07:49:27;20.83;;;10.48;;
29712;SDS011;16623;53.632;10.016;2024-03-07T07:51:53;22.13;;;10.73;;
29712;SDS011;16623;53.632;10.016;2024-03-07T07:54:19;21.83;;;11.10;;
29712;SDS011;16623;53.632;10.016;2024-03-07T07:56:45;19.15;;;8.93;;
29712;SDS011;16623;53.632;10.016;2024-03-07T07:59:13;18.02;;;9.90;;
29712;SDS011;16623;53.632;10.016;2024-03-07T08:01:39;20.98;;;9.18;;
29712;SDS011;16623;53.632;10.016;2024-03-07T08:04:05;15.23;;;9.20;;
29712;SDS011;16623;53.632;10.016;2024-03-07T08:06:31;17.35;;;10.52;;
29712;SDS011;16623;53.632;10.016;2024-03-07T08:08:56;26.10;;;10.70;;
29712;SDS011;16623;53.632;10.016;2024-03-07T08:11:22;21.15;;;8.57;;
29712;SDS011;16623;53.632;10.016;2024-03-07T08:13:47;21.52;;;9.43;;
29712;SDS011;16623;53.632;10.016;2024-03-07T08:16:15;22.40;;;11.48;;
29712;SDS011;16623;53.632;10.016;2024-03-07T08:18:41;19.02;;;10.48;;
29712;SDS011;16623;53.632;10.016;2024-03-07T08:21:06;20.90;;;11.13;;
29712;SDS011;16623;53.632;10.016;2024-03-07T08:23:38;20.15;;;10.70;;
29712;SDS011;16623;53.632;10.016;2024-03-07T08:26:04;21.42;;;10.52;;
29712;SDS011;16623;53.632;10.016;2024-03-07T08:28:30;18.02;;;8.93;;
29712;SDS011;16623;53.632;10.016;2024-03-07T08:30:56;18.33;;;10.30;;
29712;SDS011;16623;53.632;10.016;2024-03-07T08:33:21;26.75;;;12.82;;
29712;SDS011;16623;53.632;10.016;2024-03-07T08:35:47;17.15;;;7.28;;
29712;SDS011;16623;53.632;10.016;2024-03-07T08:38:14;22.58;;;12.10;;
29712;SDS011;16623;53.632;10.016;2024-03-07T08:40:40;19.90;;;12.18;;
29712;SDS011;16623;53.632;10.016;2024-03-07T08:43:06;22.70;;;11.40;;
29712;SDS011;16623;53.632;10.016;2024-03-07T08:45:32;17.67;;;11.27;;
29712;SDS011;16623;53.632;10.016;2024-03-07T08:47:58;20.95;;;10.18;;
29712;SDS011;16623;53.632;10.016;2024-03-07T08:50:25;20.20;;;10.90;;
29712;SDS011;16623;53.632;10.016;2024-03-07T08:52:51;14.60;;;8.40;;
29712;SDS011;16623;53.632;10.016;2024-03-07T08:55:22;17.85;;;9.73;;
29712;SDS011;16623;53.632;10.016;2024-03-07T08:57:49;21.02;;;11.27;;
29712;SDS011;16623;53.632;10.016;2024-03-07T09:00:16;20.75;;;11.45;;
29712;SDS011;16623;53.632;10.016;2024-03-07T09:02:49;20.48;;;10.38;;
29712;SDS011;16623;53.632;10.016;2024-03-07T09:05:24;15.48;;;10.13;;
29712;SDS011;16623;53.632;10.016;2024-03-07T09:07:51;20.85;;;10.77;;
29712;SDS011;16623;53.632;10.016;2024-03-07T09:10:18;19.02;;;11.38;;
29712;SDS011;16623;53.632;10.016;2024-03-07T09:12:44;23.23;;;11.93;;
29712;SDS011;16623;53.632;10.016;2024-03-07T09:15:11;24.08;;;11.15;;
29712;SDS011;16623;53.632;10.016;2024-03-07T09:17:37;19.98;;;11.52;;
29712;SDS011;16623;53.632;10.016;2024-03-07T09:20:03;19.90;;;11.32;;
29712;SDS011;16623;53.632;10.016;2024-03-07T09:22:30;24.05;;;11.68;;
29712;SDS011;16623;53.632;10.016;2024-03-07T09:24:56;28.00;;;13.20;;
29712;SDS011;16623;53.632;10.016;2024-03-07T09:27:24;24.92;;;12.07;;
29712;SDS011;16623;53.632;10.016;2024-03-07T09:29:50;20.02;;;11.00;;
29712;SDS011;16623;53.632;10.016;2024-03-07T09:32:16;23.27;;;13.02;;
29712;SDS011;16623;53.632;10.016;2024-03-07T09:34:42;24.17;;;12.45;;
29712;SDS011;16623;53.632;10.016;2024-03-07T09:37:08;29.42;;;13.23;;
29712;SDS011;16623;53.632;10.016;2024-03-07T09:39:34;21.60;;;11.00;;
29712;SDS011;16623;53.632;10.016;2024-03-07T09:42:00;24.23;;;12.02;;
29712;SDS011;16623;53.632;10.016;2024-03-07T09:44:26;26.13;;;13.80;;
29712;SDS011;16623;53.632;10.016;2024-03-07T09:46:54;27.70;;;13.52;;
29712;SDS011;16623;53.632;10.016;2024-03-07T09:49:20;25.20;;;12.13;;
29712;SDS011;16623;53.632;10.016;2024-03-07T09:51:47;17.75;;;9.60;;
29712;SDS011;16623;53.632;10.016;2024-03-07T09:54:23;27.55;;;13.20;;
29712;SDS011;16623;53.632;10.016;2024-03-07T09:56:50;27.02;;;13.95;;
29712;SDS011;16623;53.632;10.016;2024-03-07T09:59:18;24.77;;;13.68;;
29712;SDS011;16623;53.632;10.016;2024-03-07T10:01:47;21.33;;;6.85;;
29712;SDS011;16623;53.632;10.016;2024-03-07T10:04:18;29.23;;;15.85;;
29712;SDS011;16623;53.632;10.016;2024-03-07T10:06:55;30.05;;;15.73;;
29712;SDS011;16623;53.632;10.016;2024-03-07T10:09:21;29.30;;;13.80;;
29712;SDS011;16623;53.632;10.016;2024-03-07T10:12:00;25.63;;;13.88;;
29712;SDS011;16623;53.632;10.016;2024-03-07T10:14:27;29.25;;;14.40;;
29712;SDS011;16623;53.632;10.016;2024-03-07T10:16:56;23.77;;;12.77;;
29712;SDS011;16623;53.632;10.016;2024-03-07T10:19:22;25.42;;;11.73;;
29712;SDS011;16623;53.632;10.016;2024-03-07T10:21:47;28.80;;;13.27;;
29712;SDS011;16623;53.632;10.016;2024-03-07T10:24:13;31.92;;;16.33;;
29712;SDS011;16623;53.632;10.016;2024-03-07T10:26:39;20.92;;;11.10;;
29712;SDS011;16623;53.632;10.016;2024-03-07T10:29:05;34.75;;;16.83;;
29712;SDS011;16623;53.632;10.016;2024-03-07T10:31:33;28.88;;;16.13;;
29712;SDS011;16623;53.632;10.016;2024-03-07T10:34:03;30.48;;;15.57;;
29712;SDS011;16623;53.632;10.016;2024-03-07T10:36:29;33.33;;;15.13;;
29712;SDS011;16623;53.632;10.016;2024-03-07T10:39:01;31.00;;;16.15;;
29712;SDS011;16623;53.632;10.016;2024-03-07T10:41:28;29.48;;;15.13;;
29712;SDS011;16623;53.632;10.016;2024-03-07T10:43:55;28.95;;;13.02;;
29712;SDS011;16623;53.632;10.016;2024-03-07T10:46:25;32.58;;;15.30;;
29712;SDS011;16623;53.632;10.016;2024-03-07T10:48:54;36.67;;;15.60;;
29712;SDS011;16623;53.632;10.016;2024-03-07T10:51:22;31.13;;;15.02;;
29712;SDS011;16623;53.632;10.016;2024-03-07T10:54:10;35.83;;;14.85;;
29712;SDS011;16623;53.632;10.016;2024-03-07T10:56:55;30.38;;;13.40;;
29712;SDS011;16623;53.632;10.016;2024-03-07T10:59:38;33.80;;;15.00;;
29712;SDS011;16623;53.632;10.016;2024-03-07T11:02:15;28.30;;;14.27;;
29712;SDS011;16623;53.632;10.016;2024-03-07T11:04:58;29.42;;;15.50;;
29712;SDS011;16623;53.632;10.016;2024-03-07T11:07:25;27.23;;;13.90;;
29712;SDS011;16623;53.632;10.016;2024-03-07T11:09:52;27.08;;;14.13;;
29712;SDS011;16623;53.632;10.016;2024-03-07T11:12:21;29.77;;;11.82;;
29712;SDS011;16623;53.632;10.016;2024-03-07T11:14:50;31.00;;;12.60;;
29712;SDS011;16623;53.632;10.016;2024-03-07T11:17:17;29.17;;;14.85;;
29712;SDS011;16623;53.632;10.016;2024-03-07T11:19:44;26.90;;;13.65;;
29712;SDS011;16623;53.632;10.016;2024-03-07T11:22:10;31.55;;;14.98;;
29712;SDS011;16623;53.632;10.016;2024-03-07T11:24:42;31.65;;;16.25;;
29712;SDS011;16623;53.632;10.016;2024-03-07T11:27:11;29.88;;;15.25;;
29712;SDS011;16623;53.632;10.016;2024-03-07T11:32:12;29.70;;;15.25;;
29712;SDS011;16623;53.632;10.016;2024-03-07T11:34:40;30.92;;;14.65;;
29712;SDS011;16623;53.632;10.016;2024-03-07T11:37:06;28.05;;;12.27;;
29712;SDS011;16623;53.632;10.016;2024-03-07T11:39:43;27.73;;;13.57;;
29712;SDS011;16623;53.632;10.016;2024-03-07T11:42:24;25.75;;;12.73;;
29712;SDS011;16623;53.632;10.016;2024-03-07T11:44:58;32.15;;;15.63;;
29712;SDS011;16623;53.632;10.016;2024-03-07T11:47:25;26.98;;;11.45;;
29712;SDS011;16623;53.632;10.016;2024-03-07T11:49:54;28.58;;;14.23;;
29712;SDS011;16623;53.632;10.016;2024-03-07T11:52:22;31.75;;;16.23;;
29712;SDS011;16623;53.632;10.016;2024-03-07T11:54:48;27.80;;;14.18;;
29712;SDS011;16623;53.632;10.016;2024-03-07T11:57:17;31.60;;;15.95;;
29712;SDS011;16623;53.632;10.016;2024-03-07T11:59:57;26.30;;;13.80;;
29712;SDS011;16623;53.632;10.016;2024-03-07T12:02:26;24.58;;;11.10;;
29712;SDS011;16623;53.632;10.016;2024-03-07T12:04:52;31.27;;;14.73;;
29712;SDS011;16623;53.632;10.016;2024-03-07T12:07:19;28.60;;;13.20;;
29712;SDS011;16623;53.632;10.016;2024-03-07T12:09:47;33.22;;;15.27;;
29712;SDS011;16623;53.632;10.016;2024-03-07T12:12:18;27.52;;;14.02;;
29712;SDS011;16623;53.632;10.016;2024-03-07T12:14:46;32.22;;;13.43;;
29712;SDS011;16623;53.632;10.016;2024-03-07T12:17:13;26.10;;;13.55;;
29712;SDS011;16623;53.632;10.016;2024-03-07T12:19:41;30.75;;;15.50;;
29712;SDS011;16623;53.632;10.016;2024-03-07T12:22:11;34.45;;;15.32;;
29712;SDS011;16623;53.632;10.016;2024-03-07T12:24:40;28.98;;;15.70;;
29712;SDS011;16623;53.632;10.016;2024-03-07T12:27:09;29.35;;;15.35;;
29712;SDS011;16623;53.632;10.016;2024-03-07T12:29:39;32.42;;;16.08;;
29712;SDS011;16623;53.632;10.016;2024-03-07T12:32:07;30.33;;;14.80;;
29712;SDS011;16623;53.632;10.016;2024-03-07T12:34:35;26.17;;;13.82;;
29712;SDS011;16623;53.632;10.016;2024-03-07T12:37:05;27.73;;;14.30;;
29712;SDS011;16623;53.632;10.016;2024-03-07T12:39:35;30.02;;;15.07;;
29712;SDS011;16623;53.632;10.016;2024-03-07T12:42:03;29.67;;;15.80;;
29712;SDS011;16623;53.632;10.016;2024-03-07T12:44:42;36.80;;;15.60;;
29712;SDS011;16623;53.632;10.016;2024-03-07T12:47:15;30.15;;;15.65;;
29712;SDS011;16623;53.632;10.016;2024-03-07T12:49:44;25.55;;;14.57;;
29712;SDS011;16623;53.632;10.016;2024-03-07T12:52:10;30.10;;;14.80;;
29712;SDS011;16623;53.632;10.016;2024-03-07T12:54:40;34.25;;;15.45;;
29712;SDS011;16623;53.632;10.016;2024-03-07T12:57:06;31.92;;;15.48;;
29712;SDS011;16623;53.632;10.016;2024-03-07T12:59:33;33.45;;;16.45;;
29712;SDS011;16623;53.632;10.016;2024-03-07T13:02:11;36.58;;;16.52;;
29712;SDS011;16623;53.632;10.016;2024-03-07T13:07:07;32.92;;;16.08;;
29712;SDS011;16623;53.632;10.016;2024-03-07T13:09:33;31.30;;;17.05;;
29712;SDS011;16623;53.632;10.016;2024-03-07T13:11:59;26.45;;;15.13;;
29712;SDS011;16623;53.632;10.016;2024-03-07T13:14:34;27.92;;;16.55;;
29712;SDS011;16623;53.632;10.016;2024-03-07T13:17:00;31.45;;;17.50;;
29712;SDS011;16623;53.632;10.016;2024-03-07T13:19:29;24.40;;;12.95;;
29712;SDS011;16623;53.632;10.016;2024-03-07T13:21:55;30.95;;;16.55;;
29712;SDS011;16623;53.632;10.016;2024-03-07T13:24:21;34.30;;;16.83;;
29712;SDS011;16623;53.632;10.016;2024-03-07T13:26:47;44.70;;;17.52;;
29712;SDS011;16623;53.632;10.016;2024-03-07T13:29:14;28.90;;;17.25;;
29712;SDS011;16623;53.632;10.016;2024-03-07T13:31:40;36.03;;;16.40;;
29712;SDS011;16623;53.632;10.016;2024-03-07T13:34:08;29.70;;;10.27;;
29712;SDS011;16623;53.632;10.016;2024-03-07T13:36:38;28.70;;;15.70;;
29712;SDS011;16623;53.632;10.016;2024-03-07T13:39:05;36.70;;;17.20;;
29712;SDS011;16623;53.632;10.016;2024-03-07T13:41:35;36.88;;;17.30;;
29712;SDS011;16623;53.632;10.016;2024-03-07T13:44:01;27.52;;;13.52;;
29712;SDS011;16623;53.632;10.016;2024-03-07T13:46:27;35.20;;;18.08;;
29712;SDS011;16623;53.632;10.016;2024-03-07T13:48:54;32.55;;;17.42;;
29712;SDS011;16623;53.632;10.016;2024-03-07T13:51:19;34.78;;;17.15;;
29712;SDS011;16623;53.632;10.016;2024-03-07T13:53:45;36.17;;;17.48;;
29712;SDS011;16623;53.632;10.016;2024-03-07T14:01:37;31.50;;;16.85;;
29712;SDS011;16623;53.632;10.016;2024-03-07T14:10:18;30.60;;;17.15;;
29712;SDS011;16623;53.632;10.016;2024-03-07T14:13:24;34.45;;;17.20;;
29712;SDS011;16623;53.632;10.016;2024-03-07T14:16:31;21.70;;;11.73;;
29712;SDS011;16623;53.632;10.016;2024-03-07T14:19:36;30.77;;;16.65;;
29712;SDS011;16623;53.632;10.016;2024-03-07T14:25:03;34.75;;;14.98;;
29712;SDS011;16623;53.632;10.016;2024-03-07T14:33:19;33.17;;;16.92;;
29712;SDS011;16623;53.632;10.016;2024-03-07T14:41:15;36.45;;;15.82;;
29712;SDS011;16623;53.632;10.016;2024-03-07T14:43:43;29.80;;;15.10;;
29712;SDS011;16623;53.632;10.016;2024-03-07T14:46:10;34.22;;;18.27;;